sensor_id;sensor_type;location;lat;lon;timestamp;pressure;altitude;pressure_sealevel;temperature;humidity
13934;BME280;7039;52.168;9.866;2023-02-13T00:00:23;102809.94;;;9.49;83.85
13934;BME280;7039;52.168;9.866;2023-02-13T00:02:50;102817.84;;;9.34;84.32
13934;BME280;7039;52.168;9.866;2023-02-13T00:05:17;102812.59;;;9.37;84.25
13934;BME280;7039;52.168;9.866;2023-02-13T00:07:43;102816.13;;;9.31;84.08
13934;BME280;7039;52.168;9.866;2023-02-13T00:10:23;102822.22;;;9.26;85.07
13934;BME280;7039;52.168;9.866;2023-02-13T00:13:24;102819.63;;;9.24;85.32
13934;BME280;7039;52.168;9.866;2023-02-13T00:16:03;102817.94;;;9.18;85.39
13934;BME280;7039;52.168;9.866;2023-02-13T00:18:33;102815.34;;;9.20;85.73
13934;BME280;7039;52.168;9.866;2023-02-13T00:21:01;102817.09;;;9.18;85.45
13934;BME280;7039;52.168;9.866;2023-02-13T00:23:29;102822.22;;;9.27;85.18
13934;BME280;7039;52.168;9.866;2023-02-13T00:25:56;102824.72;;;9.41;84.92
13934;BME280;7039;52.168;9.866;2023-02-13T00:28:23;102820.34;;;9.45;84.88
13934;BME280;7039;52.168;9.866;2023-02-13T00:30:49;102821.25;;;9.45;84.87
13934;BME280;7039;52.168;9.866;2023-02-13T00:33:17;102825.56;;;9.45;85.15
13934;BME280;7039;52.168;9.866;2023-02-13T00:35:44;102818.69;;;9.33;84.77
13934;BME280;7039;52.168;9.866;2023-02-13T00:38:10;102822.16;;;9.35;85.07
13934;BME280;7039;52.168;9.866;2023-02-13T00:40:37;102817.78;;;9.40;85.12
13934;BME280;7039;52.168;9.866;2023-02-13T00:43:03;102814.28;;;9.47;84.86
13934;BME280;7039;52.168;9.866;2023-02-13T00:45:30;102821.97;;;9.61;84.74
13934;BME280;7039;52.168;9.866;2023-02-13T00:47:56;102817.53;;;9.72;84.00
13934;BME280;7039;52.168;9.866;2023-02-13T00:50:24;102825.28;;;9.80;83.74
13934;BME280;7039;52.168;9.866;2023-02-13T00:52:50;102821.91;;;9.70;83.70
13934;BME280;7039;52.168;9.866;2023-02-13T00:55:17;102820.28;;;9.58;84.10
13934;BME280;7039;52.168;9.866;2023-02-13T00:57:43;102821.13;;;9.56;84.22
13934;BME280;7039;52.168;9.866;2023-02-13T01:00:10;102821.91;;;9.67;83.93
13934;BME280;7039;52.168;9.866;2023-02-13T01:02:37;102814.28;;;9.46;84.02
13934;BME280;7039;52.168;9.866;2023-02-13T01:05:04;102811.78;;;9.29;85.19
13934;BME280;7039;52.168;9.866;2023-02-13T01:07:32;102812.53;;;9.45;84.78
13934;BME280;7039;52.168;9.866;2023-02-13T01:09:58;102809.94;;;9.45;84.33
13934;BME280;7039;52.168;9.866;2023-02-13T01:12:25;102805.66;;;9.39;84.54
13934;BME280;7039;52.168;9.866;2023-02-13T01:14:51;102805.56;;;9.47;84.41
13934;BME280;7039;52.168;9.866;2023-02-13T01:17:18;102802.94;;;9.53;84.28
13934;BME280;7039;52.168;9.866;2023-02-13T01:19:44;102797.72;;;9.51;84.19
13934;BME280;7039;52.168;9.866;2023-02-13T01:22:11;102799.63;;;9.31;85.03
13934;BME280;7039;52.168;9.866;2023-02-13T01:24:38;102807.31;;;9.46;84.35
13934;BME280;7039;52.168;9.866;2023-02-13T01:27:05;102803.91;;;9.43;84.14
13934;BME280;7039;52.168;9.866;2023-02-13T01:29:31;102797.78;;;9.45;84.20
13934;BME280;7039;52.168;9.866;2023-02-13T01:31:58;102797.84;;;9.40;84.22
13934;BME280;7039;52.168;9.866;2023-02-13T01:34:26;102789.94;;;9.47;84.33
13934;BME280;7039;52.168;9.866;2023-02-13T01:36:53;102793.41;;;9.49;84.21
13934;BME280;7039;52.168;9.866;2023-02-13T01:39:19;102792.50;;;9.51;84.00
13934;BME280;7039;52.168;9.866;2023-02-13T01:41:47;102786.44;;;9.54;84.10
13934;BME280;7039;52.168;9.866;2023-02-13T01:44:45;102795.94;;;9.59;84.00
13934;BME280;7039;52.168;9.866;2023-02-13T01:47:14;102788.16;;;9.53;83.87
13934;BME280;7039;52.168;9.866;2023-02-13T01:49:43;102783.81;;;9.55;83.65
13934;BME280;7039;52.168;9.866;2023-02-13T01:52:11;102780.41;;;9.46;83.89
13934;BME280;7039;52.168;9.866;2023-02-13T01:54:39;102787.25;;;9.57;83.72
13934;BME280;7039;52.168;9.866;2023-02-13T01:57:12;102783.72;;;9.65;83.74
13934;BME280;7039;52.168;9.866;2023-02-13T01:59:43;102778.59;;;9.58;83.48
13934;BME280;7039;52.168;9.866;2023-02-13T02:02:11;102770.84;;;9.46;83.57
13934;BME280;7039;52.168;9.866;2023-02-13T02:04:38;102773.47;;;9.45;83.99
13934;BME280;7039;52.168;9.866;2023-02-13T02:07:10;102774.31;;;9.47;84.00
13934;BME280;7039;52.168;9.866;2023-02-13T02:09:40;102783.03;;;9.46;84.04
13934;BME280;7039;52.168;9.866;2023-02-13T02:12:13;102783.88;;;9.49;84.13
13934;BME280;7039;52.168;9.866;2023-02-13T02:14:43;102773.69;;;9.20;84.66
13934;BME280;7039;52.168;9.866;2023-02-13T02:17:10;102769.41;;;9.11;84.95
13934;BME280;7039;52.168;9.866;2023-02-13T02:19:40;102777.97;;;9.26;84.77
13934;BME280;7039;52.168;9.866;2023-02-13T02:22:41;102777.94;;;9.29;84.69
13934;BME280;7039;52.168;9.866;2023-02-13T02:25:37;102777.03;;;9.36;84.59
13934;BME280;7039;52.168;9.866;2023-02-13T02:28:40;102778.75;;;9.38;84.61
13934;BME280;7039;52.168;9.866;2023-02-13T02:34:30;102772.66;;;9.41;84.64
13934;BME280;7039;52.168;9.866;2023-02-13T02:37:12;102762.25;;;9.38;84.77
13934;BME280;7039;52.168;9.866;2023-02-13T02:40:00;102752.75;;;9.32;84.96
13934;BME280;7039;52.168;9.866;2023-02-13T02:42:33;102756.16;;;9.39;84.84
13934;BME280;7039;52.168;9.866;2023-02-13T02:45:07;102759.75;;;9.27;85.00
13934;BME280;7039;52.168;9.866;2023-02-13T02:47:41;102752.81;;;9.22;85.09
13934;BME280;7039;52.168;9.866;2023-02-13T02:50:33;102748.38;;;9.33;84.76
13934;BME280;7039;52.168;9.866;2023-02-13T02:53:16;102751.00;;;9.36;84.96
13934;BME280;7039;52.168;9.866;2023-02-13T02:55:48;102748.47;;;9.25;84.95
13934;BME280;7039;52.168;9.866;2023-02-13T02:58:20;102746.63;;;9.38;84.97
13934;BME280;7039;52.168;9.866;2023-02-13T03:01:07;102744.00;;;9.39;84.59
13934;BME280;7039;52.168;9.866;2023-02-13T03:03:54;102737.16;;;9.29;84.68
13934;BME280;7039;52.168;9.866;2023-02-13T03:06:45;102737.88;;;9.44;84.53
13934;BME280;7039;52.168;9.866;2023-02-13T03:09:16;102741.34;;;9.46;84.09
13934;BME280;7039;52.168;9.866;2023-02-13T03:12:02;102744.06;;;9.32;84.22
13934;BME280;7039;52.168;9.866;2023-02-13T03:14:46;102744.13;;;9.24;84.49
13934;BME280;7039;52.168;9.866;2023-02-13T03:17:14;102749.28;;;9.30;84.63
13934;BME280;7039;52.168;9.866;2023-02-13T03:20:09;102751.00;;;9.36;84.64
13934;BME280;7039;52.168;9.866;2023-02-13T03:23:04;102745.75;;;9.37;84.65
13934;BME280;7039;52.168;9.866;2023-02-13T03:25:37;102751.03;;;9.31;84.70
13934;BME280;7039;52.168;9.866;2023-02-13T03:28:10;102745.91;;;9.22;85.04
13934;BME280;7039;52.168;9.866;2023-02-13T03:31:02;102752.78;;;9.28;84.74
13934;BME280;7039;52.168;9.866;2023-02-13T03:33:45;102745.81;;;9.31;84.87
13934;BME280;7039;52.168;9.866;2023-02-13T03:36:22;102749.25;;;9.35;84.41
13934;BME280;7039;52.168;9.866;2023-02-13T03:39:17;102739.91;;;9.11;84.30
13934;BME280;7039;52.168;9.866;2023-02-13T03:41:49;102746.63;;;9.35;83.92
13934;BME280;7039;52.168;9.866;2023-02-13T03:44:23;102750.31;;;9.09;84.05
13934;BME280;7039;52.168;9.866;2023-02-13T03:46:54;102751.13;;;9.17;83.43
13934;BME280;7039;52.168;9.866;2023-02-13T03:49:26;102751.91;;;9.27;83.11
13934;BME280;7039;52.168;9.866;2023-02-13T03:52:15;102757.88;;;9.43;83.06
13934;BME280;7039;52.168;9.866;2023-02-13T03:54:48;102758.81;;;9.36;83.68
13934;BME280;7039;52.168;9.866;2023-02-13T03:57:35;102762.25;;;9.38;83.77
13934;BME280;7039;52.168;9.866;2023-02-13T04:00:21;102754.41;;;9.43;83.43
13934;BME280;7039;52.168;9.866;2023-02-13T04:02:55;102753.66;;;9.27;84.07
13934;BME280;7039;52.168;9.866;2023-02-13T04:05:25;102760.50;;;9.37;83.77
13934;BME280;7039;52.168;9.866;2023-02-13T04:07:51;102757.16;;;9.21;83.65
13934;BME280;7039;52.168;9.866;2023-02-13T04:10:44;102753.84;;;9.02;83.67
13934;BME280;7039;52.168;9.866;2023-02-13T04:13:54;102752.03;;;9.12;83.81
13934;BME280;7039;52.168;9.866;2023-02-13T04:16:31;102748.63;;;8.99;83.58
13934;BME280;7039;52.168;9.866;2023-02-13T04:19:00;102745.34;;;8.72;84.74
13934;BME280;7039;52.168;9.866;2023-02-13T04:21:31;102737.63;;;8.57;85.20
13934;BME280;7039;52.168;9.866;2023-02-13T04:24:01;102731.50;;;8.67;84.60
13934;BME280;7039;52.168;9.866;2023-02-13T04:26:35;102730.72;;;8.54;85.74
13934;BME280;7039;52.168;9.866;2023-02-13T04:29:04;102737.66;;;8.54;85.70
13934;BME280;7039;52.168;9.866;2023-02-13T04:31:30;102737.66;;;8.45;85.86
13934;BME280;7039;52.168;9.866;2023-02-13T04:33:57;102731.66;;;8.43;86.26
13934;BME280;7039;52.168;9.866;2023-02-13T04:36:23;102734.25;;;8.30;86.56
13934;BME280;7039;52.168;9.866;2023-02-13T04:38:50;102733.44;;;8.22;86.91
13934;BME280;7039;52.168;9.866;2023-02-13T04:41:17;102717.88;;;8.07;87.27
13934;BME280;7039;52.168;9.866;2023-02-13T04:43:45;102723.88;;;8.21;87.06
13934;BME280;7039;52.168;9.866;2023-02-13T04:46:12;102720.47;;;8.13;87.19
13934;BME280;7039;52.168;9.866;2023-02-13T04:48:38;102718.75;;;8.06;87.58
13934;BME280;7039;52.168;9.866;2023-02-13T04:51:05;102724.81;;;7.99;87.50
13934;BME280;7039;52.168;9.866;2023-02-13T04:53:31;102719.59;;;8.08;87.09
13934;BME280;7039;52.168;9.866;2023-02-13T04:55:58;102713.59;;;8.00;87.28
13934;BME280;7039;52.168;9.866;2023-02-13T04:58:24;102706.69;;;7.91;87.46
13934;BME280;7039;52.168;9.866;2023-02-13T05:00:52;102719.53;;;8.22;86.89
13934;BME280;7039;52.168;9.866;2023-02-13T05:03:19;102721.31;;;8.13;86.57
13934;BME280;7039;52.168;9.866;2023-02-13T05:05:47;102720.47;;;8.08;86.65
13934;BME280;7039;52.168;9.866;2023-02-13T05:08:13;102712.72;;;7.96;86.90
13934;BME280;7039;52.168;9.866;2023-02-13T05:10:40;102713.59;;;8.00;86.89
13934;BME280;7039;52.168;9.866;2023-02-13T05:13:09;102717.81;;;8.27;85.95
13934;BME280;7039;52.168;9.866;2023-02-13T05:15:37;102715.28;;;8.13;85.92
13934;BME280;7039;52.168;9.866;2023-02-13T05:18:05;102731.69;;;8.15;85.95
13934;BME280;7039;52.168;9.866;2023-02-13T05:20:32;102729.13;;;8.06;86.02
13934;BME280;7039;52.168;9.866;2023-02-13T05:22:59;102725.66;;;8.14;85.52
13934;BME280;7039;52.168;9.866;2023-02-13T05:25:43;102736.09;;;7.99;86.28
13934;BME280;7039;52.168;9.866;2023-02-13T05:28:12;102734.34;;;8.07;86.27
13934;BME280;7039;52.168;9.866;2023-02-13T05:31:14;102748.16;;;8.23;85.91
13934;BME280;7039;52.168;9.866;2023-02-13T05:33:42;102748.16;;;8.23;85.59
13934;BME280;7039;52.168;9.866;2023-02-13T05:36:10;102745.56;;;8.17;85.18
13934;BME280;7039;52.168;9.866;2023-02-13T05:38:36;102748.16;;;8.17;85.05
13934;BME280;7039;52.168;9.866;2023-02-13T05:41:06;102750.72;;;8.26;84.78
13934;BME280;7039;52.168;9.866;2023-02-13T05:43:32;102733.47;;;8.07;84.79
13934;BME280;7039;52.168;9.866;2023-02-13T05:46:03;102742.09;;;8.16;85.03
13934;BME280;7039;52.168;9.866;2023-02-13T05:48:31;102744.72;;;8.07;85.01
13934;BME280;7039;52.168;9.866;2023-02-13T05:50:59;102752.47;;;8.20;85.02
13934;BME280;7039;52.168;9.866;2023-02-13T05:53:37;102740.41;;;8.06;85.43
13934;BME280;7039;52.168;9.866;2023-02-13T05:56:04;102748.19;;;8.12;85.15
13934;BME280;7039;52.168;9.866;2023-02-13T05:58:32;102754.22;;;8.14;85.41
13934;BME280;7039;52.168;9.866;2023-02-13T06:00:59;102755.09;;;8.10;85.16
13934;BME280;7039;52.168;9.866;2023-02-13T06:03:27;102755.91;;;8.26;84.61
13934;BME280;7039;52.168;9.866;2023-02-13T06:05:55;102749.94;;;8.07;85.04
13934;BME280;7039;52.168;9.866;2023-02-13T06:08:24;102752.47;;;8.21;84.63
13934;BME280;7039;52.168;9.866;2023-02-13T06:10:51;102757.72;;;8.09;84.71
13934;BME280;7039;52.168;9.866;2023-02-13T06:13:18;102764.66;;;8.10;84.84
13934;BME280;7039;52.168;9.866;2023-02-13T06:15:45;102766.38;;;8.20;84.28
13934;BME280;7039;52.168;9.866;2023-02-13T06:18:11;102765.53;;;8.01;84.82
13934;BME280;7039;52.168;9.866;2023-02-13T06:20:38;102767.25;;;8.10;84.06
13934;BME280;7039;52.168;9.866;2023-02-13T06:23:04;102770.69;;;8.10;84.26
13934;BME280;7039;52.168;9.866;2023-02-13T06:25:33;102784.53;;;8.23;83.75
13934;BME280;7039;52.168;9.866;2023-02-13T06:27:59;102775.03;;;8.16;84.13
13934;BME280;7039;52.168;9.866;2023-02-13T06:30:27;102777.59;;;8.25;83.96
13934;BME280;7039;52.168;9.866;2023-02-13T06:32:54;102772.44;;;8.16;83.94
13934;BME280;7039;52.168;9.866;2023-02-13T06:35:21;102775.03;;;8.11;84.67
13934;BME280;7039;52.168;9.866;2023-02-13T06:37:47;102768.97;;;8.19;84.69
13934;BME280;7039;52.168;9.866;2023-02-13T06:40:15;102775.91;;;8.06;85.01
13934;BME280;7039;52.168;9.866;2023-02-13T06:42:43;102783.69;;;8.15;84.82
13934;BME280;7039;52.168;9.866;2023-02-13T06:45:10;102773.31;;;8.06;85.22
13934;BME280;7039;52.168;9.866;2023-02-13T06:47:40;102770.72;;;8.12;85.20
13934;BME280;7039;52.168;9.866;2023-02-13T06:50:07;102776.75;;;8.25;84.64
13934;BME280;7039;52.168;9.866;2023-02-13T06:52:36;102778.44;;;8.30;84.35
13934;BME280;7039;52.168;9.866;2023-02-13T06:55:03;102775.91;;;8.16;84.89
13934;BME280;7039;52.168;9.866;2023-02-13T06:57:33;102786.22;;;8.35;84.59
13934;BME280;7039;52.168;9.866;2023-02-13T07:00:06;102787.94;;;8.37;84.50
13934;BME280;7039;52.168;9.866;2023-02-13T07:02:33;102794.97;;;8.14;85.40
13934;BME280;7039;52.168;9.866;2023-02-13T07:05:02;102797.50;;;8.45;84.83
13934;BME280;7039;52.168;9.866;2023-02-13T07:07:33;102794.00;;;8.49;84.12
13934;BME280;7039;52.168;9.866;2023-02-13T07:10:01;102789.69;;;8.46;84.41
13934;BME280;7039;52.168;9.866;2023-02-13T07:12:28;102787.09;;;8.35;84.56
13934;BME280;7039;52.168;9.866;2023-02-13T07:14:55;102787.09;;;8.31;84.98
13934;BME280;7039;52.168;9.866;2023-02-13T07:17:23;102799.22;;;8.40;85.20
13934;BME280;7039;52.168;9.866;2023-02-13T07:19:50;102794.03;;;8.44;84.56
13934;BME280;7039;52.168;9.866;2023-02-13T07:22:17;102796.66;;;8.43;84.71
13934;BME280;7039;52.168;9.866;2023-02-13T07:24:48;102801.78;;;8.53;84.31
13934;BME280;7039;52.168;9.866;2023-02-13T07:27:18;102807.84;;;8.55;84.22
13934;BME280;7039;52.168;9.866;2023-02-13T07:29:51;102803.50;;;8.64;84.18
13934;BME280;7039;52.168;9.866;2023-02-13T07:33:22;102807.84;;;8.63;84.17
13934;BME280;7039;52.168;9.866;2023-02-13T07:36:12;102810.50;;;8.39;84.63
13934;BME280;7039;52.168;9.866;2023-02-13T07:38:41;102813.06;;;8.51;85.02
13934;BME280;7039;52.168;9.866;2023-02-13T07:41:23;102815.69;;;8.48;84.89
13934;BME280;7039;52.168;9.866;2023-02-13T07:43:51;102822.56;;;8.66;84.66
13934;BME280;7039;52.168;9.866;2023-02-13T07:46:17;102820.00;;;8.56;84.93
13934;BME280;7039;52.168;9.866;2023-02-13T07:48:50;102824.34;;;8.47;85.92
13934;BME280;7039;52.168;9.866;2023-02-13T07:51:18;102819.16;;;8.33;87.12
13934;BME280;7039;52.168;9.866;2023-02-13T07:53:45;102832.16;;;8.39;87.38
13934;BME280;7039;52.168;9.866;2023-02-13T07:56:12;102823.53;;;8.23;88.04
13934;BME280;7039;52.168;9.866;2023-02-13T07:58:40;102835.66;;;8.33;88.31
13934;BME280;7039;52.168;9.866;2023-02-13T08:01:13;102833.91;;;8.42;88.12
13934;BME280;7039;52.168;9.866;2023-02-13T08:06:56;102829.56;;;8.47;87.91
13934;BME280;7039;52.168;9.866;2023-02-13T08:09:23;102841.72;;;8.40;88.03
13934;BME280;7039;52.168;9.866;2023-02-13T08:12:09;102840.84;;;8.47;87.68
13934;BME280;7039;52.168;9.866;2023-02-13T08:14:37;102835.66;;;8.47;87.42
13934;BME280;7039;52.168;9.866;2023-02-13T08:17:18;102838.25;;;8.46;87.53
13934;BME280;7039;52.168;9.866;2023-02-13T08:19:49;102838.22;;;8.52;87.20
13934;BME280;7039;52.168;9.866;2023-02-13T08:22:22;102839.13;;;8.40;87.11
13934;BME280;7039;52.168;9.866;2023-02-13T08:24:53;102840.84;;;8.52;86.73
13934;BME280;7039;52.168;9.866;2023-02-13T08:27:24;102844.25;;;8.60;86.39
13934;BME280;7039;52.168;9.866;2023-02-13T08:30:27;102847.66;;;8.76;85.69
13934;BME280;7039;52.168;9.866;2023-02-13T08:36:52;102838.84;;;9.03;83.86
13934;BME280;7039;52.168;9.866;2023-02-13T08:39:20;102845.72;;;9.18;83.48
13934;BME280;7039;52.168;9.866;2023-02-13T08:41:47;102839.69;;;9.08;83.57
13934;BME280;7039;52.168;9.866;2023-02-13T08:44:20;102834.50;;;9.07;82.95
13934;BME280;7039;52.168;9.866;2023-02-13T08:47:30;102843.00;;;9.36;82.27
13934;BME280;7039;52.168;9.866;2023-02-13T08:49:56;102836.84;;;9.47;82.10
13934;BME280;7039;52.168;9.866;2023-02-13T08:52:40;102846.41;;;9.48;81.58
13934;BME280;7039;52.168;9.866;2023-02-13T08:55:11;102837.66;;;9.55;81.33
13934;BME280;7039;52.168;9.866;2023-02-13T08:57:37;102841.16;;;9.54;80.84
13934;BME280;7039;52.168;9.866;2023-02-13T09:00:05;102837.78;;;9.38;81.31
13934;BME280;7039;52.168;9.866;2023-02-13T09:02:46;102848.31;;;9.15;81.32
13934;BME280;7039;52.168;9.866;2023-02-13T09:05:13;102845.00;;;8.91;81.75
13934;BME280;7039;52.168;9.866;2023-02-13T09:07:41;102844.09;;;9.00;82.24
13934;BME280;7039;52.168;9.866;2023-02-13T09:10:08;102838.84;;;9.11;81.95
13934;BME280;7039;52.168;9.866;2023-02-13T09:12:37;102840.66;;;8.87;82.45
13934;BME280;7039;52.168;9.866;2023-02-13T09:15:04;102832.91;;;8.80;83.15
13934;BME280;7039;52.168;9.866;2023-02-13T09:17:31;102838.09;;;8.84;83.33
13934;BME280;7039;52.168;9.866;2023-02-13T09:19:57;102840.63;;;8.98;83.46
13934;BME280;7039;52.168;9.866;2023-02-13T09:22:24;102838.06;;;8.95;82.66
13934;BME280;7039;52.168;9.866;2023-02-13T09:24:51;102844.88;;;9.14;82.28
13934;BME280;7039;52.168;9.866;2023-02-13T09:30:43;102829.25;;;9.14;82.11
13934;BME280;7039;52.168;9.866;2023-02-13T09:33:11;102830.09;;;9.16;82.12
13934;BME280;7039;52.168;9.866;2023-02-13T09:35:40;102829.22;;;9.22;81.96
13934;BME280;7039;52.168;9.866;2023-02-13T09:38:07;102824.09;;;9.05;82.35
13934;BME280;7039;52.168;9.866;2023-02-13T09:40:37;102823.22;;;9.08;82.20
13934;BME280;7039;52.168;9.866;2023-02-13T09:43:12;102831.88;;;9.10;81.90
13934;BME280;7039;52.168;9.866;2023-02-13T09:45:44;102832.69;;;9.21;81.71
13934;BME280;7039;52.168;9.866;2023-02-13T09:48:18;102841.31;;;9.28;80.95
13934;BME280;7039;52.168;9.866;2023-02-13T09:50:57;102839.53;;;9.33;80.46
13934;BME280;7039;52.168;9.866;2023-02-13T09:53:26;102832.63;;;9.29;80.75
13934;BME280;7039;52.168;9.866;2023-02-13T09:56:06;102842.00;;;9.51;80.25
13934;BME280;7039;52.168;9.866;2023-02-13T09:58:42;102837.72;;;9.47;79.65
13934;BME280;7039;52.168;9.866;2023-02-13T10:01:25;102832.59;;;9.38;79.21
13934;BME280;7039;52.168;9.866;2023-02-13T10:04:17;102836.91;;;9.37;79.11
13934;BME280;7039;52.168;9.866;2023-02-13T10:06:57;102835.19;;;9.35;80.09
13934;BME280;7039;52.168;9.866;2023-02-13T10:09:51;102835.91;;;9.57;78.82
13934;BME280;7039;52.168;9.866;2023-02-13T10:15:17;102835.94;;;9.51;78.33
13934;BME280;7039;52.168;9.866;2023-02-13T10:31:21;102842.16;;;10.36;76.17
13934;BME280;7039;52.168;9.866;2023-02-13T10:33:50;102844.81;;;10.33;75.45
13934;BME280;7039;52.168;9.866;2023-02-13T10:36:18;102852.47;;;10.45;75.27
13934;BME280;7039;52.168;9.866;2023-02-13T10:42:20;102846.81;;;10.00;76.21
13934;BME280;7039;52.168;9.866;2023-02-13T10:45:21;102849.34;;;10.11;75.65
13934;BME280;7039;52.168;9.866;2023-02-13T10:48:15;102844.81;;;10.27;75.74
13934;BME280;7039;52.168;9.866;2023-02-13T10:51:07;102833.22;;;9.66;77.32
13934;BME280;7039;52.168;9.866;2023-02-13T10:54:15;102835.66;;;9.85;75.97
13934;BME280;7039;52.168;9.866;2023-02-13T11:07:11;102837.38;;;9.90;75.17
13934;BME280;7039;52.168;9.866;2023-02-13T11:09:51;102834.63;;;10.02;75.26
13934;BME280;7039;52.168;9.866;2023-02-13T11:22:42;102816.34;;;10.09;74.77
13934;BME280;7039;52.168;9.866;2023-02-13T11:25:38;102817.75;;;10.39;75.00
13934;BME280;7039;52.168;9.866;2023-02-13T11:28:49;102821.22;;;10.42;74.61
13934;BME280;7039;52.168;9.866;2023-02-13T11:31:28;102814.44;;;10.23;74.78
13934;BME280;7039;52.168;9.866;2023-02-13T11:35:15;102817.94;;;10.20;74.58
13934;BME280;7039;52.168;9.866;2023-02-13T11:38:10;102816.19;;;10.21;76.14
13934;BME280;7039;52.168;9.866;2023-02-13T11:41:36;102820.22;;;10.53;75.19
13934;BME280;7039;52.168;9.866;2023-02-13T11:50:32;102810.13;;;10.20;74.97
13934;BME280;7039;52.168;9.866;2023-02-13T11:53:20;102801.50;;;10.15;75.33
13934;BME280;7039;52.168;9.866;2023-02-13T11:56:11;102798.94;;;10.09;74.93
13934;BME280;7039;52.168;9.866;2023-02-13T11:58:45;102794.00;;;9.81;75.92
13934;BME280;7039;52.168;9.866;2023-02-13T12:01:26;102784.66;;;9.57;76.43
13934;BME280;7039;52.168;9.866;2023-02-13T12:04:25;102791.09;;;10.11;75.87
13934;BME280;7039;52.168;9.866;2023-02-13T12:07:44;102788.47;;;10.14;75.38
13934;BME280;7039;52.168;9.866;2023-02-13T12:10:25;102777.47;;;9.86;76.63
13934;BME280;7039;52.168;9.866;2023-02-13T12:13:06;102785.06;;;10.07;75.00
13934;BME280;7039;52.168;9.866;2023-02-13T12:15:59;102784.94;;;10.15;74.77
13934;BME280;7039;52.168;9.866;2023-02-13T12:18:34;102783.06;;;10.31;74.15
13934;BME280;7039;52.168;9.866;2023-02-13T12:21:35;102778.22;;;9.95;74.03
13934;BME280;7039;52.168;9.866;2023-02-13T13:32:17;102741.47;;;10.18;73.58
13934;BME280;7039;52.168;9.866;2023-02-13T13:35:13;102734.28;;;10.40;71.70
13934;BME280;7039;52.168;9.866;2023-02-13T13:45:04;102735.94;;;11.05;70.62
13934;BME280;7039;52.168;9.866;2023-02-13T13:47:58;102738.41;;;11.16;69.50
13934;BME280;7039;52.168;9.866;2023-02-13T13:50:34;102717.31;;;10.72;69.70
13934;BME280;7039;52.168;9.866;2023-02-13T13:53:26;102715.25;;;10.31;71.10
13934;BME280;7039;52.168;9.866;2023-02-13T13:56:15;102715.25;;;10.28;71.26
13934;BME280;7039;52.168;9.866;2023-02-13T14:06:02;102707.81;;;10.68;71.41
13934;BME280;7039;52.168;9.866;2023-02-13T14:08:59;102690.38;;;10.69;69.68
13934;BME280;7039;52.168;9.866;2023-02-13T14:11:47;102693.41;;;10.39;70.67
13934;BME280;7039;52.168;9.866;2023-02-13T14:14:55;102698.91;;;10.81;70.51
13934;BME280;7039;52.168;9.866;2023-02-13T14:17:54;102713.06;;;11.21;68.99
13934;BME280;7039;52.168;9.866;2023-02-13T14:21:05;102702.13;;;11.48;67.77
13934;BME280;7039;52.168;9.866;2023-02-13T14:23:46;102695.00;;;11.08;68.95
13934;BME280;7039;52.168;9.866;2023-02-13T14:29:58;102699.25;;;11.62;66.99
13934;BME280;7039;52.168;9.866;2023-02-13T14:32:32;102696.94;;;11.94;66.73
13934;BME280;7039;52.168;9.866;2023-02-13T14:35:22;102693.56;;;11.88;65.99
13934;BME280;7039;52.168;9.866;2023-02-13T14:38:25;102695.09;;;12.41;64.97
13934;BME280;7039;52.168;9.866;2023-02-13T14:41:00;102691.97;;;12.25;64.58
13934;BME280;7039;52.168;9.866;2023-02-13T14:43:32;102699.78;;;13.01;63.06
13934;BME280;7039;52.168;9.866;2023-02-13T14:46:08;102684.28;;;12.93;61.33
13934;BME280;7039;52.168;9.866;2023-02-13T14:48:47;102690.25;;;12.99;61.87
13934;BME280;7039;52.168;9.866;2023-02-13T14:51:34;102685.81;;;13.02;62.54
13934;BME280;7039;52.168;9.866;2023-02-13T14:54:18;102685.81;;;13.02;62.41
13934;BME280;7039;52.168;9.866;2023-02-13T15:00:40;102679.31;;;12.44;63.25
13934;BME280;7039;52.168;9.866;2023-02-13T15:06:58;102666.94;;;12.13;64.17
13934;BME280;7039;52.168;9.866;2023-02-13T15:09:35;102683.16;;;13.04;61.75
13934;BME280;7039;52.168;9.866;2023-02-13T15:12:24;102679.38;;;12.80;62.54
13934;BME280;7039;52.168;9.866;2023-02-13T15:32:02;102669.44;;;11.26;66.65
13934;BME280;7039;52.168;9.866;2023-02-13T15:35:28;102666.06;;;11.67;66.48
13934;BME280;7039;52.168;9.866;2023-02-13T15:38:25;102678.03;;;12.24;64.40
13934;BME280;7039;52.168;9.866;2023-02-13T15:41:01;102674.81;;;12.10;64.60
13934;BME280;7039;52.168;9.866;2023-02-13T15:43:45;102676.69;;;12.03;64.90
13934;BME280;7039;52.168;9.866;2023-02-13T15:46:37;102673.41;;;11.95;64.19
13934;BME280;7039;52.168;9.866;2023-02-13T15:49:08;102680.13;;;12.47;63.92
13934;BME280;7039;52.168;9.866;2023-02-13T15:52:04;102669.41;;;12.58;62.51
13934;BME280;7039;52.168;9.866;2023-02-13T15:54:34;102667.88;;;12.48;62.78
13934;BME280;7039;52.168;9.866;2023-02-13T15:59:37;102658.44;;;11.57;65.46
13934;BME280;7039;52.168;9.866;2023-02-13T16:02:11;102658.94;;;11.29;66.98
13934;BME280;7039;52.168;9.866;2023-02-13T16:04:42;102661.13;;;11.02;68.29
13934;BME280;7039;52.168;9.866;2023-02-13T16:12:23;102660.25;;;10.46;69.92
13934;BME280;7039;52.168;9.866;2023-02-13T16:14:59;102673.56;;;10.29;71.05
13934;BME280;7039;52.168;9.866;2023-02-13T16:17:35;102666.81;;;10.10;70.72
13934;BME280;7039;52.168;9.866;2023-02-13T16:20:18;102669.72;;;9.87;71.82
13934;BME280;7039;52.168;9.866;2023-02-13T16:28:13;102659.56;;;9.62;72.70
13934;BME280;7039;52.168;9.866;2023-02-13T16:30:53;102660.53;;;9.52;72.97
13934;BME280;7039;52.168;9.866;2023-02-13T16:33:36;102665.13;;;9.25;73.41
13934;BME280;7039;52.168;9.866;2023-02-13T17:09:11;102654.81;;;7.40;80.98
13934;BME280;7039;52.168;9.866;2023-02-13T17:11:38;102653.97;;;7.44;80.50
13934;BME280;7039;52.168;9.866;2023-02-13T17:14:05;102665.22;;;7.46;80.34
13934;BME280;7039;52.168;9.866;2023-02-13T17:16:47;102654.81;;;7.51;80.08
13934;BME280;7039;52.168;9.866;2023-02-13T17:19:53;102661.78;;;7.43;80.08
13934;BME280;7039;52.168;9.866;2023-02-13T17:39:19;102669.56;;;6.89;81.24
13934;BME280;7039;52.168;9.866;2023-02-13T17:42:29;102677.34;;;6.94;81.73
13934;BME280;7039;52.168;9.866;2023-02-13T17:48:24;102667.81;;;6.79;81.47
13934;BME280;7039;52.168;9.866;2023-02-13T17:54:35;102684.28;;;6.75;81.50
13934;BME280;7039;52.168;9.866;2023-02-13T18:58:33;102670.88;;;5.72;83.72